sensor_id;sensor_type;location;lat;lon;timestamp;P1;durP1;ratioP1;P2;durP2;ratioP2
33696;SDS011;20031;43.416;23.232;2024-02-16T00:00:57;29.60;;;7.38;;
33696;SDS011;20031;43.416;23.232;2024-02-16T00:03:23;15.32;;;6.57;;
33696;SDS011;20031;43.416;23.232;2024-02-16T00:05:48;13.35;;;6.72;;
33696;SDS011;20031;43.416;23.232;2024-02-16T00:08:16;12.32;;;6.70;;
33696;SDS011;20031;43.416;23.232;2024-02-16T00:10:42;14.48;;;6.45;;
33696;SDS011;20031;43.416;23.232;2024-02-16T00:13:08;17.20;;;6.47;;
33696;SDS011;20031;43.416;23.232;2024-02-16T00:15:33;12.77;;;6.18;;
33696;SDS011;20031;43.416;23.232;2024-02-16T00:17:59;12.25;;;7.15;;
33696;SDS011;20031;43.416;23.232;2024-02-16T00:20:25;8.73;;;6.60;;
33696;SDS011;20031;43.416;23.232;2024-02-16T00:22:50;8.60;;;6.38;;
33696;SDS011;20031;43.416;23.232;2024-02-16T00:25:16;9.45;;;6.20;;
33696;SDS011;20031;43.416;23.232;2024-02-16T00:27:43;9.90;;;6.38;;
33696;SDS011;20031;43.416;23.232;2024-02-16T00:30:08;9.40;;;6.53;;
33696;SDS011;20031;43.416;23.232;2024-02-16T00:32:35;10.30;;;6.78;;
33696;SDS011;20031;43.416;23.232;2024-02-16T00:35:02;9.85;;;6.47;;
33696;SDS011;20031;43.416;23.232;2024-02-16T00:37:28;9.98;;;6.75;;
33696;SDS011;20031;43.416;23.232;2024-02-16T00:39:53;13.10;;;6.68;;
33696;SDS011;20031;43.416;23.232;2024-02-16T00:42:20;9.88;;;7.28;;
33696;SDS011;20031;43.416;23.232;2024-02-16T00:44:48;11.25;;;7.97;;
33696;SDS011;20031;43.416;23.232;2024-02-16T00:47:13;12.77;;;9.13;;
33696;SDS011;20031;43.416;23.232;2024-02-16T00:49:41;9.18;;;6.57;;
33696;SDS011;20031;43.416;23.232;2024-02-16T00:52:07;11.82;;;6.93;;
33696;SDS011;20031;43.416;23.232;2024-02-16T00:54:33;10.00;;;6.80;;
33696;SDS011;20031;43.416;23.232;2024-02-16T00:56:58;9.52;;;7.13;;
33696;SDS011;20031;43.416;23.232;2024-02-16T00:59:27;9.73;;;7.60;;
33696;SDS011;20031;43.416;23.232;2024-02-16T01:01:55;8.93;;;6.63;;
33696;SDS011;20031;43.416;23.232;2024-02-16T01:04:21;8.25;;;6.30;;
33696;SDS011;20031;43.416;23.232;2024-02-16T01:06:47;8.00;;;5.78;;
33696;SDS011;20031;43.416;23.232;2024-02-16T01:09:13;11.30;;;6.10;;
33696;SDS011;20031;43.416;23.232;2024-02-16T01:11:41;8.30;;;6.28;;
33696;SDS011;20031;43.416;23.232;2024-02-16T01:14:07;10.27;;;6.70;;
33696;SDS011;20031;43.416;23.232;2024-02-16T01:16:32;11.45;;;6.60;;
33696;SDS011;20031;43.416;23.232;2024-02-16T01:18:58;16.15;;;6.90;;
33696;SDS011;20031;43.416;23.232;2024-02-16T01:21:23;9.98;;;7.05;;
33696;SDS011;20031;43.416;23.232;2024-02-16T01:23:49;12.27;;;6.32;;
33696;SDS011;20031;43.416;23.232;2024-02-16T01:26:14;10.82;;;6.75;;
33696;SDS011;20031;43.416;23.232;2024-02-16T01:28:40;11.32;;;6.90;;
33696;SDS011;20031;43.416;23.232;2024-02-16T01:31:05;10.35;;;6.30;;
33696;SDS011;20031;43.416;23.232;2024-02-16T01:33:31;11.05;;;7.07;;
33696;SDS011;20031;43.416;23.232;2024-02-16T01:35:59;11.43;;;6.90;;
33696;SDS011;20031;43.416;23.232;2024-02-16T01:38:25;8.75;;;6.55;;
33696;SDS011;20031;43.416;23.232;2024-02-16T01:40:50;9.90;;;6.88;;
33696;SDS011;20031;43.416;23.232;2024-02-16T01:43:19;9.15;;;6.68;;
33696;SDS011;20031;43.416;23.232;2024-02-16T01:45:45;8.38;;;6.22;;
33696;SDS011;20031;43.416;23.232;2024-02-16T01:48:11;8.30;;;5.82;;
33696;SDS011;20031;43.416;23.232;2024-02-16T01:50:38;8.57;;;6.07;;
33696;SDS011;20031;43.416;23.232;2024-02-16T01:53:04;9.80;;;6.70;;
33696;SDS011;20031;43.416;23.232;2024-02-16T01:55:29;9.98;;;6.30;;
33696;SDS011;20031;43.416;23.232;2024-02-16T01:57:55;9.27;;;6.18;;
33696;SDS011;20031;43.416;23.232;2024-02-16T02:00:23;11.25;;;6.40;;
33696;SDS011;20031;43.416;23.232;2024-02-16T02:02:49;10.60;;;6.85;;
33696;SDS011;20031;43.416;23.232;2024-02-16T02:05:15;13.15;;;6.78;;
33696;SDS011;20031;43.416;23.232;2024-02-16T02:07:41;9.32;;;6.43;;
33696;SDS011;20031;43.416;23.232;2024-02-16T02:10:07;10.40;;;6.18;;
33696;SDS011;20031;43.416;23.232;2024-02-16T02:12:33;8.65;;;6.03;;
33696;SDS011;20031;43.416;23.232;2024-02-16T02:14:59;10.35;;;5.93;;
33696;SDS011;20031;43.416;23.232;2024-02-16T02:17:24;8.73;;;5.88;;
33696;SDS011;20031;43.416;23.232;2024-02-16T02:19:50;8.55;;;5.72;;
33696;SDS011;20031;43.416;23.232;2024-02-16T02:22:16;10.30;;;5.05;;
33696;SDS011;20031;43.416;23.232;2024-02-16T02:24:43;10.48;;;5.30;;
33696;SDS011;20031;43.416;23.232;2024-02-16T02:27:09;6.65;;;4.82;;
33696;SDS011;20031;43.416;23.232;2024-02-16T02:29:35;7.57;;;4.78;;
33696;SDS011;20031;43.416;23.232;2024-02-16T02:32:00;8.02;;;4.95;;
33696;SDS011;20031;43.416;23.232;2024-02-16T02:34:26;16.65;;;5.32;;
33696;SDS011;20031;43.416;23.232;2024-02-16T02:36:51;7.07;;;4.85;;
33696;SDS011;20031;43.416;23.232;2024-02-16T02:39:17;7.53;;;5.07;;
33696;SDS011;20031;43.416;23.232;2024-02-16T02:41:42;8.88;;;5.00;;
33696;SDS011;20031;43.416;23.232;2024-02-16T02:44:08;8.20;;;4.90;;
33696;SDS011;20031;43.416;23.232;2024-02-16T02:46:34;8.13;;;4.50;;
33696;SDS011;20031;43.416;23.232;2024-02-16T02:49:00;6.70;;;4.43;;
33696;SDS011;20031;43.416;23.232;2024-02-16T02:51:25;12.07;;;4.65;;
33696;SDS011;20031;43.416;23.232;2024-02-16T02:53:52;4.70;;;3.13;;
33696;SDS011;20031;43.416;23.232;2024-02-16T02:56:17;4.43;;;3.20;;
33696;SDS011;20031;43.416;23.232;2024-02-16T02:58:43;8.02;;;4.93;;
33696;SDS011;20031;43.416;23.232;2024-02-16T03:01:08;11.25;;;5.05;;
33696;SDS011;20031;43.416;23.232;2024-02-16T03:03:34;14.20;;;4.90;;
33696;SDS011;20031;43.416;23.232;2024-02-16T03:05:59;8.68;;;4.78;;
33696;SDS011;20031;43.416;23.232;2024-02-16T03:08:25;12.88;;;5.65;;
33696;SDS011;20031;43.416;23.232;2024-02-16T03:10:51;4.60;;;3.50;;
33696;SDS011;20031;43.416;23.232;2024-02-16T03:13:16;4.72;;;3.40;;
33696;SDS011;20031;43.416;23.232;2024-02-16T03:15:44;3.25;;;2.80;;
33696;SDS011;20031;43.416;23.232;2024-02-16T03:18:10;3.30;;;2.70;;
33696;SDS011;20031;43.416;23.232;2024-02-16T03:20:35;3.10;;;2.70;;
33696;SDS011;20031;43.416;23.232;2024-02-16T03:23:01;11.82;;;4.18;;
33696;SDS011;20031;43.416;23.232;2024-02-16T03:25:27;6.45;;;3.92;;
33696;SDS011;20031;43.416;23.232;2024-02-16T03:27:53;5.05;;;2.90;;
33696;SDS011;20031;43.416;23.232;2024-02-16T03:30:19;2.90;;;2.50;;
33696;SDS011;20031;43.416;23.232;2024-02-16T03:32:48;7.10;;;3.83;;
33696;SDS011;20031;43.416;23.232;2024-02-16T03:35:14;7.88;;;4.18;;
33696;SDS011;20031;43.416;23.232;2024-02-16T03:37:40;8.25;;;3.97;;
33696;SDS011;20031;43.416;23.232;2024-02-16T03:40:07;7.65;;;4.40;;
33696;SDS011;20031;43.416;23.232;2024-02-16T03:42:33;8.43;;;4.85;;
33696;SDS011;20031;43.416;23.232;2024-02-16T03:44:59;8.35;;;5.72;;
33696;SDS011;20031;43.416;23.232;2024-02-16T03:47:24;8.57;;;5.10;;
33696;SDS011;20031;43.416;23.232;2024-02-16T03:49:50;6.63;;;4.82;;
33696;SDS011;20031;43.416;23.232;2024-02-16T03:52:15;6.63;;;4.40;;
33696;SDS011;20031;43.416;23.232;2024-02-16T03:54:41;10.13;;;5.05;;
33696;SDS011;20031;43.416;23.232;2024-02-16T03:57:08;10.57;;;4.47;;
33696;SDS011;20031;43.416;23.232;2024-02-16T03:59:36;6.05;;;4.18;;
33696;SDS011;20031;43.416;23.232;2024-02-16T04:02:02;10.15;;;4.75;;
33696;SDS011;20031;43.416;23.232;2024-02-16T04:04:27;7.43;;;4.45;;
33696;SDS011;20031;43.416;23.232;2024-02-16T04:06:53;5.55;;;3.38;;
33696;SDS011;20031;43.416;23.232;2024-02-16T04:09:19;7.90;;;3.30;;
33696;SDS011;20031;43.416;23.232;2024-02-16T04:11:47;4.40;;;3.30;;
33696;SDS011;20031;43.416;23.232;2024-02-16T04:14:13;5.70;;;3.63;;
33696;SDS011;20031;43.416;23.232;2024-02-16T04:16:38;5.15;;;3.72;;
33696;SDS011;20031;43.416;23.232;2024-02-16T04:19:03;4.47;;;2.88;;
33696;SDS011;20031;43.416;23.232;2024-02-16T04:21:29;3.50;;;2.90;;
33696;SDS011;20031;43.416;23.232;2024-02-16T04:23:54;5.32;;;3.30;;
33696;SDS011;20031;43.416;23.232;2024-02-16T04:26:20;6.88;;;4.57;;
33696;SDS011;20031;43.416;23.232;2024-02-16T04:28:45;11.32;;;4.70;;
33696;SDS011;20031;43.416;23.232;2024-02-16T04:31:11;8.13;;;4.95;;
33696;SDS011;20031;43.416;23.232;2024-02-16T04:33:36;8.90;;;5.03;;
33696;SDS011;20031;43.416;23.232;2024-02-16T04:36:04;8.05;;;5.28;;
33696;SDS011;20031;43.416;23.232;2024-02-16T04:38:32;10.63;;;5.30;;
33696;SDS011;20031;43.416;23.232;2024-02-16T04:40:58;6.43;;;4.82;;
33696;SDS011;20031;43.416;23.232;2024-02-16T04:43:23;7.78;;;4.70;;
33696;SDS011;20031;43.416;23.232;2024-02-16T04:45:49;8.82;;;4.95;;
33696;SDS011;20031;43.416;23.232;2024-02-16T04:48:14;9.43;;;4.30;;
33696;SDS011;20031;43.416;23.232;2024-02-16T04:50:40;6.63;;;3.90;;
33696;SDS011;20031;43.416;23.232;2024-02-16T04:53:05;5.55;;;3.88;;
33696;SDS011;20031;43.416;23.232;2024-02-16T04:55:31;8.80;;;4.18;;
33696;SDS011;20031;43.416;23.232;2024-02-16T04:57:56;8.20;;;4.13;;
33696;SDS011;20031;43.416;23.232;2024-02-16T05:00:22;7.07;;;4.28;;
33696;SDS011;20031;43.416;23.232;2024-02-16T05:02:48;12.95;;;6.88;;
33696;SDS011;20031;43.416;23.232;2024-02-16T05:05:13;16.55;;;8.07;;
33696;SDS011;20031;43.416;23.232;2024-02-16T05:07:41;43.80;;;24.48;;
33696;SDS011;20031;43.416;23.232;2024-02-16T05:10:08;25.95;;;15.98;;
33696;SDS011;20031;43.416;23.232;2024-02-16T05:12:34;33.70;;;21.60;;
33696;SDS011;20031;43.416;23.232;2024-02-16T05:14:59;40.78;;;22.33;;
33696;SDS011;20031;43.416;23.232;2024-02-16T05:17:25;36.13;;;21.42;;
33696;SDS011;20031;43.416;23.232;2024-02-16T05:19:51;34.25;;;20.50;;
33696;SDS011;20031;43.416;23.232;2024-02-16T05:22:18;36.33;;;19.45;;
33696;SDS011;20031;43.416;23.232;2024-02-16T05:24:46;27.00;;;15.80;;
33696;SDS011;20031;43.416;23.232;2024-02-16T05:27:12;17.42;;;11.20;;
33696;SDS011;20031;43.416;23.232;2024-02-16T05:29:38;19.48;;;10.45;;
33696;SDS011;20031;43.416;23.232;2024-02-16T05:32:03;13.55;;;6.85;;
33696;SDS011;20031;43.416;23.232;2024-02-16T05:34:29;9.93;;;5.80;;
33696;SDS011;20031;43.416;23.232;2024-02-16T05:37:02;14.30;;;6.13;;
33696;SDS011;20031;43.416;23.232;2024-02-16T05:39:35;16.17;;;6.40;;
33696;SDS011;20031;43.416;23.232;2024-02-16T05:42:08;21.92;;;8.77;;
33696;SDS011;20031;43.416;23.232;2024-02-16T05:44:34;19.33;;;8.48;;
33696;SDS011;20031;43.416;23.232;2024-02-16T05:46:59;14.80;;;6.75;;
33696;SDS011;20031;43.416;23.232;2024-02-16T05:49:25;13.65;;;5.30;;
33696;SDS011;20031;43.416;23.232;2024-02-16T05:51:51;13.40;;;5.07;;
33696;SDS011;20031;43.416;23.232;2024-02-16T05:54:40;27.40;;;10.65;;
33696;SDS011;20031;43.416;23.232;2024-02-16T05:57:05;19.27;;;11.15;;
33696;SDS011;20031;43.416;23.232;2024-02-16T05:59:34;18.15;;;9.68;;
33696;SDS011;20031;43.416;23.232;2024-02-16T06:02:00;25.90;;;14.88;;
33696;SDS011;20031;43.416;23.232;2024-02-16T06:04:25;32.10;;;18.02;;
33696;SDS011;20031;43.416;23.232;2024-02-16T06:06:51;31.63;;;15.38;;
33696;SDS011;20031;43.416;23.232;2024-02-16T06:09:18;25.25;;;13.40;;
33696;SDS011;20031;43.416;23.232;2024-02-16T06:11:44;23.88;;;8.65;;
33696;SDS011;20031;43.416;23.232;2024-02-16T06:14:10;96.78;;;52.80;;
33696;SDS011;20031;43.416;23.232;2024-02-16T06:16:35;182.60;;;101.28;;
33696;SDS011;20031;43.416;23.232;2024-02-16T06:19:01;73.40;;;36.28;;
33696;SDS011;20031;43.416;23.232;2024-02-16T06:21:26;88.28;;;42.17;;
33696;SDS011;20031;43.416;23.232;2024-02-16T06:23:52;62.67;;;27.75;;
33696;SDS011;20031;43.416;23.232;2024-02-16T06:26:17;32.80;;;13.20;;
33696;SDS011;20031;43.416;23.232;2024-02-16T06:28:43;59.70;;;25.88;;
33696;SDS011;20031;43.416;23.232;2024-02-16T06:31:08;178.57;;;80.38;;
33696;SDS011;20031;43.416;23.232;2024-02-16T06:33:34;75.53;;;37.08;;
33696;SDS011;20031;43.416;23.232;2024-02-16T06:35:59;127.38;;;61.00;;
33696;SDS011;20031;43.416;23.232;2024-02-16T06:38:25;26.83;;;10.52;;
33696;SDS011;20031;43.416;23.232;2024-02-16T06:40:50;23.08;;;8.18;;
33696;SDS011;20031;43.416;23.232;2024-02-16T06:43:15;23.73;;;9.07;;
33696;SDS011;20031;43.416;23.232;2024-02-16T06:45:41;29.10;;;15.15;;
33696;SDS011;20031;43.416;23.232;2024-02-16T06:48:06;29.83;;;12.65;;
33696;SDS011;20031;43.416;23.232;2024-02-16T06:50:32;22.67;;;10.70;;
33696;SDS011;20031;43.416;23.232;2024-02-16T06:52:57;27.85;;;11.45;;
33696;SDS011;20031;43.416;23.232;2024-02-16T06:55:23;21.08;;;11.07;;
33696;SDS011;20031;43.416;23.232;2024-02-16T06:57:48;28.15;;;12.68;;
33696;SDS011;20031;43.416;23.232;2024-02-16T07:00:15;21.63;;;11.15;;
33696;SDS011;20031;43.416;23.232;2024-02-16T07:02:40;23.38;;;11.13;;
33696;SDS011;20031;43.416;23.232;2024-02-16T07:05:07;30.50;;;12.52;;
33696;SDS011;20031;43.416;23.232;2024-02-16T07:07:33;31.33;;;12.88;;
33696;SDS011;20031;43.416;23.232;2024-02-16T07:10:01;24.35;;;11.35;;
33696;SDS011;20031;43.416;23.232;2024-02-16T07:12:27;32.72;;;15.02;;
33696;SDS011;20031;43.416;23.232;2024-02-16T07:14:52;37.72;;;15.40;;
33696;SDS011;20031;43.416;23.232;2024-02-16T07:17:18;28.73;;;12.10;;
33696;SDS011;20031;43.416;23.232;2024-02-16T07:19:44;23.45;;;10.65;;
33696;SDS011;20031;43.416;23.232;2024-02-16T07:22:09;18.15;;;9.90;;
33696;SDS011;20031;43.416;23.232;2024-02-16T07:24:35;19.85;;;9.73;;
33696;SDS011;20031;43.416;23.232;2024-02-16T07:27:00;20.70;;;10.25;;
33696;SDS011;20031;43.416;23.232;2024-02-16T07:29:27;20.48;;;10.65;;
33696;SDS011;20031;43.416;23.232;2024-02-16T07:31:53;26.23;;;13.13;;
33696;SDS011;20031;43.416;23.232;2024-02-16T07:34:18;28.55;;;12.48;;
33696;SDS011;20031;43.416;23.232;2024-02-16T07:36:44;26.48;;;13.40;;
33696;SDS011;20031;43.416;23.232;2024-02-16T07:39:10;25.17;;;12.23;;
33696;SDS011;20031;43.416;23.232;2024-02-16T07:41:37;22.77;;;11.68;;
33696;SDS011;20031;43.416;23.232;2024-02-16T07:44:04;22.10;;;11.30;;
33696;SDS011;20031;43.416;23.232;2024-02-16T07:46:29;32.03;;;12.27;;
33696;SDS011;20031;43.416;23.232;2024-02-16T07:48:55;21.10;;;10.55;;
33696;SDS011;20031;43.416;23.232;2024-02-16T07:51:20;25.52;;;15.18;;
33696;SDS011;20031;43.416;23.232;2024-02-16T07:53:46;25.65;;;15.23;;
33696;SDS011;20031;43.416;23.232;2024-02-16T07:56:12;22.38;;;12.50;;
33696;SDS011;20031;43.416;23.232;2024-02-16T07:58:37;39.75;;;14.05;;
33696;SDS011;20031;43.416;23.232;2024-02-16T08:01:03;56.47;;;16.27;;
33696;SDS011;20031;43.416;23.232;2024-02-16T08:03:28;37.65;;;12.18;;
33696;SDS011;20031;43.416;23.232;2024-02-16T08:05:55;32.28;;;11.32;;
33696;SDS011;20031;43.416;23.232;2024-02-16T08:08:22;25.23;;;8.38;;
33696;SDS011;20031;43.416;23.232;2024-02-16T08:10:48;14.10;;;6.45;;
33696;SDS011;20031;43.416;23.232;2024-02-16T08:13:13;15.90;;;5.95;;
33696;SDS011;20031;43.416;23.232;2024-02-16T08:15:39;18.23;;;6.32;;
33696;SDS011;20031;43.416;23.232;2024-02-16T08:18:04;14.13;;;6.20;;
33696;SDS011;20031;43.416;23.232;2024-02-16T08:20:30;17.25;;;6.72;;
33696;SDS011;20031;43.416;23.232;2024-02-16T08:22:56;10.90;;;5.72;;
33696;SDS011;20031;43.416;23.232;2024-02-16T08:25:22;9.32;;;5.45;;
33696;SDS011;20031;43.416;23.232;2024-02-16T08:27:48;14.50;;;5.57;;
33696;SDS011;20031;43.416;23.232;2024-02-16T08:30:14;11.20;;;5.20;;
33696;SDS011;20031;43.416;23.232;2024-02-16T08:32:40;11.13;;;5.15;;
33696;SDS011;20031;43.416;23.232;2024-02-16T08:35:05;9.50;;;4.78;;
33696;SDS011;20031;43.416;23.232;2024-02-16T08:37:31;7.90;;;5.38;;
33696;SDS011;20031;43.416;23.232;2024-02-16T08:39:57;9.77;;;5.65;;
33696;SDS011;20031;43.416;23.232;2024-02-16T08:42:23;12.18;;;5.38;;
33696;SDS011;20031;43.416;23.232;2024-02-16T08:44:48;10.73;;;5.35;;
33696;SDS011;20031;43.416;23.232;2024-02-16T08:47:14;9.32;;;5.50;;
33696;SDS011;20031;43.416;23.232;2024-02-16T08:49:40;7.65;;;5.07;;
33696;SDS011;20031;43.416;23.232;2024-02-16T08:52:07;7.50;;;4.70;;
33696;SDS011;20031;43.416;23.232;2024-02-16T08:54:33;12.52;;;6.50;;
33696;SDS011;20031;43.416;23.232;2024-02-16T08:56:58;11.27;;;4.97;;
33696;SDS011;20031;43.416;23.232;2024-02-16T08:59:24;7.03;;;4.32;;
33696;SDS011;20031;43.416;23.232;2024-02-16T09:01:50;9.18;;;4.57;;
33696;SDS011;20031;43.416;23.232;2024-02-16T09:04:15;11.73;;;4.43;;
33696;SDS011;20031;43.416;23.232;2024-02-16T09:06:41;7.90;;;4.15;;
33696;SDS011;20031;43.416;23.232;2024-02-16T09:09:07;7.18;;;4.22;;
33696;SDS011;20031;43.416;23.232;2024-02-16T09:11:32;7.13;;;4.30;;
33696;SDS011;20031;43.416;23.232;2024-02-16T09:13:58;14.90;;;4.57;;
33696;SDS011;20031;43.416;23.232;2024-02-16T09:16:24;6.43;;;3.88;;
33696;SDS011;20031;43.416;23.232;2024-02-16T09:18:49;5.78;;;3.42;;
33696;SDS011;20031;43.416;23.232;2024-02-16T09:21:15;5.38;;;3.50;;
33696;SDS011;20031;43.416;23.232;2024-02-16T09:23:40;9.38;;;3.90;;
33696;SDS011;20031;43.416;23.232;2024-02-16T09:26:06;5.97;;;3.72;;
33696;SDS011;20031;43.416;23.232;2024-02-16T09:28:38;4.78;;;3.33;;
33696;SDS011;20031;43.416;23.232;2024-02-16T09:31:05;7.20;;;3.72;;
33696;SDS011;20031;43.416;23.232;2024-02-16T09:33:32;14.23;;;4.82;;
33696;SDS011;20031;43.416;23.232;2024-02-16T09:35:58;6.65;;;3.50;;
33696;SDS011;20031;43.416;23.232;2024-02-16T09:38:23;9.60;;;4.15;;
33696;SDS011;20031;43.416;23.232;2024-02-16T09:40:49;10.32;;;4.00;;
33696;SDS011;20031;43.416;23.232;2024-02-16T09:43:49;14.68;;;4.63;;
33696;SDS011;20031;43.416;23.232;2024-02-16T09:46:07;20.67;;;5.65;;
33696;SDS011;20031;43.416;23.232;2024-02-16T09:48:33;10.50;;;3.97;;
33696;SDS011;20031;43.416;23.232;2024-02-16T09:50:59;8.23;;;3.97;;
33696;SDS011;20031;43.416;23.232;2024-02-16T09:53:26;6.53;;;3.58;;
33696;SDS011;20031;43.416;23.232;2024-02-16T09:55:53;7.45;;;3.78;;
33696;SDS011;20031;43.416;23.232;2024-02-16T09:58:19;3.92;;;3.05;;
33696;SDS011;20031;43.416;23.232;2024-02-16T10:00:48;6.97;;;3.58;;
33696;SDS011;20031;43.416;23.232;2024-02-16T10:03:21;8.15;;;4.18;;
33696;SDS011;20031;43.416;23.232;2024-02-16T10:05:47;6.95;;;4.40;;
33696;SDS011;20031;43.416;23.232;2024-02-16T10:08:14;7.55;;;3.85;;
33696;SDS011;20031;43.416;23.232;2024-02-16T10:10:40;11.00;;;4.18;;
33696;SDS011;20031;43.416;23.232;2024-02-16T10:13:06;11.27;;;3.88;;
33696;SDS011;20031;43.416;23.232;2024-02-16T10:15:33;4.35;;;2.92;;
33696;SDS011;20031;43.416;23.232;2024-02-16T10:18:03;6.05;;;3.53;;
33696;SDS011;20031;43.416;23.232;2024-02-16T10:20:32;4.40;;;2.80;;
33696;SDS011;20031;43.416;23.232;2024-02-16T10:23:03;6.93;;;3.10;;
33696;SDS011;20031;43.416;23.232;2024-02-16T10:25:29;4.28;;;3.03;;
33696;SDS011;20031;43.416;23.232;2024-02-16T10:27:57;7.47;;;2.97;;
33696;SDS011;20031;43.416;23.232;2024-02-16T10:30:23;4.75;;;2.60;;
33696;SDS011;20031;43.416;23.232;2024-02-16T10:32:55;3.05;;;2.50;;
33696;SDS011;20031;43.416;23.232;2024-02-16T10:35:23;5.43;;;3.22;;
33696;SDS011;20031;43.416;23.232;2024-02-16T10:37:50;5.55;;;2.90;;
33696;SDS011;20031;43.416;23.232;2024-02-16T10:40:17;3.38;;;2.03;;
33696;SDS011;20031;43.416;23.232;2024-02-16T10:42:45;3.83;;;2.30;;
33696;SDS011;20031;43.416;23.232;2024-02-16T10:45:11;8.95;;;3.60;;
33696;SDS011;20031;43.416;23.232;2024-02-16T10:47:38;6.07;;;2.17;;
33696;SDS011;20031;43.416;23.232;2024-02-16T10:50:04;1.90;;;1.70;;
33696;SDS011;20031;43.416;23.232;2024-02-16T10:52:33;4.18;;;1.77;;
33696;SDS011;20031;43.416;23.232;2024-02-16T10:55:01;3.67;;;1.90;;
33696;SDS011;20031;43.416;23.232;2024-02-16T10:57:29;8.48;;;2.15;;
33696;SDS011;20031;43.416;23.232;2024-02-16T10:59:54;2.75;;;2.03;;
33696;SDS011;20031;43.416;23.232;2024-02-16T11:02:21;2.25;;;1.80;;
33696;SDS011;20031;43.416;23.232;2024-02-16T11:04:47;2.15;;;1.90;;
33696;SDS011;20031;43.416;23.232;2024-02-16T11:07:16;3.47;;;1.88;;
33696;SDS011;20031;43.416;23.232;2024-02-16T11:09:43;6.72;;;2.42;;
33696;SDS011;20031;43.416;23.232;2024-02-16T11:12:11;5.13;;;2.10;;
33696;SDS011;20031;43.416;23.232;2024-02-16T11:14:41;6.18;;;1.80;;
33696;SDS011;20031;43.416;23.232;2024-02-16T11:17:08;4.97;;;2.00;;
33696;SDS011;20031;43.416;23.232;2024-02-16T11:19:35;2.10;;;1.67;;
33696;SDS011;20031;43.416;23.232;2024-02-16T11:22:04;8.15;;;2.15;;
33696;SDS011;20031;43.416;23.232;2024-02-16T11:24:34;7.50;;;2.28;;
33696;SDS011;20031;43.416;23.232;2024-02-16T11:27:04;3.25;;;2.05;;
33696;SDS011;20031;43.416;23.232;2024-02-16T11:29:31;28.40;;;2.90;;
33696;SDS011;20031;43.416;23.232;2024-02-16T11:31:59;18.48;;;2.90;;
33696;SDS011;20031;43.416;23.232;2024-02-16T11:34:26;4.15;;;2.08;;
33696;SDS011;20031;43.416;23.232;2024-02-16T11:36:53;10.82;;;2.67;;
33696;SDS011;20031;43.416;23.232;2024-02-16T11:39:20;2.10;;;1.90;;
33696;SDS011;20031;43.416;23.232;2024-02-16T11:41:46;3.28;;;2.25;;
33696;SDS011;20031;43.416;23.232;2024-02-16T11:44:14;2.10;;;1.90;;
33696;SDS011;20031;43.416;23.232;2024-02-16T11:46:43;3.60;;;2.08;;
33696;SDS011;20031;43.416;23.232;2024-02-16T11:49:08;5.22;;;2.10;;
33696;SDS011;20031;43.416;23.232;2024-02-16T11:51:35;3.53;;;2.30;;
33696;SDS011;20031;43.416;23.232;2024-02-16T11:54:01;4.38;;;2.03;;
33696;SDS011;20031;43.416;23.232;2024-02-16T11:56:27;2.38;;;1.98;;
33696;SDS011;20031;43.416;23.232;2024-02-16T11:58:53;15.00;;;2.70;;
33696;SDS011;20031;43.416;23.232;2024-02-16T12:01:19;4.10;;;2.20;;
33696;SDS011;20031;43.416;23.232;2024-02-16T12:03:46;2.55;;;2.03;;
33696;SDS011;20031;43.416;23.232;2024-02-16T12:06:19;2.47;;;2.03;;
33696;SDS011;20031;43.416;23.232;2024-02-16T12:08:46;11.68;;;2.50;;
33696;SDS011;20031;43.416;23.232;2024-02-16T12:11:11;5.55;;;2.20;;
33696;SDS011;20031;43.416;23.232;2024-02-16T12:13:37;22.38;;;3.50;;
33696;SDS011;20031;43.416;23.232;2024-02-16T12:16:04;3.88;;;2.10;;
33696;SDS011;20031;43.416;23.232;2024-02-16T12:18:31;6.68;;;2.83;;
33696;SDS011;20031;43.416;23.232;2024-02-16T12:23:23;4.55;;;2.30;;
33696;SDS011;20031;43.416;23.232;2024-02-16T12:25:48;3.13;;;2.20;;
33696;SDS011;20031;43.416;23.232;2024-02-16T12:28:14;2.22;;;2.00;;
33696;SDS011;20031;43.416;23.232;2024-02-16T12:30:39;3.67;;;2.00;;
33696;SDS011;20031;43.416;23.232;2024-02-16T12:33:05;6.65;;;2.53;;
33696;SDS011;20031;43.416;23.232;2024-02-16T12:35:30;47.03;;;4.38;;
33696;SDS011;20031;43.416;23.232;2024-02-16T12:37:56;9.25;;;3.05;;
33696;SDS011;20031;43.416;23.232;2024-02-16T12:40:22;6.20;;;2.20;;
33696;SDS011;20031;43.416;23.232;2024-02-16T12:42:47;6.57;;;2.55;;
33696;SDS011;20031;43.416;23.232;2024-02-16T12:45:13;2.53;;;2.00;;
33696;SDS011;20031;43.416;23.232;2024-02-16T12:47:38;2.20;;;2.00;;
33696;SDS011;20031;43.416;23.232;2024-02-16T12:50:04;5.95;;;2.60;;
33696;SDS011;20031;43.416;23.232;2024-02-16T12:52:29;8.43;;;2.22;;
33696;SDS011;20031;43.416;23.232;2024-02-16T12:54:56;3.17;;;2.20;;
33696;SDS011;20031;43.416;23.232;2024-02-16T12:57:23;3.28;;;2.30;;
33696;SDS011;20031;43.416;23.232;2024-02-16T12:59:49;2.65;;;2.10;;
33696;SDS011;20031;43.416;23.232;2024-02-16T13:02:15;4.50;;;2.47;;
33696;SDS011;20031;43.416;23.232;2024-02-16T13:04:40;3.78;;;2.40;;
33696;SDS011;20031;43.416;23.232;2024-02-16T13:07:05;11.65;;;2.40;;
33696;SDS011;20031;43.416;23.232;2024-02-16T13:09:31;3.05;;;2.10;;
33696;SDS011;20031;43.416;23.232;2024-02-16T13:11:56;4.53;;;2.70;;
33696;SDS011;20031;43.416;23.232;2024-02-16T13:14:22;11.00;;;3.83;;
33696;SDS011;20031;43.416;23.232;2024-02-16T13:16:47;2.50;;;2.20;;
33696;SDS011;20031;43.416;23.232;2024-02-16T13:19:13;18.00;;;2.78;;
33696;SDS011;20031;43.416;23.232;2024-02-16T13:21:38;3.67;;;2.00;;
33696;SDS011;20031;43.416;23.232;2024-02-16T13:24:05;4.00;;;2.15;;
33696;SDS011;20031;43.416;23.232;2024-02-16T13:26:30;4.75;;;2.80;;
33696;SDS011;20031;43.416;23.232;2024-02-16T13:28:56;20.50;;;3.25;;
33696;SDS011;20031;43.416;23.232;2024-02-16T13:31:22;2.50;;;2.05;;
33696;SDS011;20031;43.416;23.232;2024-02-16T13:33:49;2.50;;;2.30;;
33696;SDS011;20031;43.416;23.232;2024-02-16T13:36:14;8.63;;;2.60;;
33696;SDS011;20031;43.416;23.232;2024-02-16T13:38:40;3.70;;;2.30;;
33696;SDS011;20031;43.416;23.232;2024-02-16T13:41:05;3.35;;;2.22;;
33696;SDS011;20031;43.416;23.232;2024-02-16T13:43:31;4.97;;;2.30;;
33696;SDS011;20031;43.416;23.232;2024-02-16T13:45:57;6.82;;;2.67;;
33696;SDS011;20031;43.416;23.232;2024-02-16T13:48:23;9.65;;;2.42;;
33696;SDS011;20031;43.416;23.232;2024-02-16T13:50:49;2.00;;;1.80;;
33696;SDS011;20031;43.416;23.232;2024-02-16T13:53:15;9.73;;;2.40;;
33696;SDS011;20031;43.416;23.232;2024-02-16T13:55:42;10.55;;;2.60;;
33696;SDS011;20031;43.416;23.232;2024-02-16T13:58:09;7.68;;;2.17;;
33696;SDS011;20031;43.416;23.232;2024-02-16T14:00:37;4.25;;;2.40;;
33696;SDS011;20031;43.416;23.232;2024-02-16T14:03:04;4.20;;;2.22;;
33696;SDS011;20031;43.416;23.232;2024-02-16T14:05:31;13.80;;;3.35;;
33696;SDS011;20031;43.416;23.232;2024-02-16T14:07:57;4.85;;;2.50;;
33696;SDS011;20031;43.416;23.232;2024-02-16T14:10:22;2.40;;;2.03;;
33696;SDS011;20031;43.416;23.232;2024-02-16T14:12:47;3.33;;;1.88;;
33696;SDS011;20031;43.416;23.232;2024-02-16T14:15:13;8.60;;;2.17;;
33696;SDS011;20031;43.416;23.232;2024-02-16T14:17:43;8.77;;;2.40;;
33696;SDS011;20031;43.416;23.232;2024-02-16T14:20:09;8.00;;;2.45;;
33696;SDS011;20031;43.416;23.232;2024-02-16T14:22:35;5.22;;;2.10;;